Wetterdaten: aktuell Sonntag, 23.11.2014 06:03
Datum Zeit Temperatur Feuchte Luftdruck Regen Wind Richtung Richtung Taupunkt Windchill
23.11.2014 06:03 9,1 C 95 % 1018,1 hPa 0,0 l/m 16,1 km/h (3 Bft) O-SO22.5 110 8,3 C 6,7 C
23.11.2014 05:03 9,0 C 95 % 1018,1 hPa 0,0 l/m 13,5 km/h (3 Bft) SO45 125 8,2 C 6,9 C
23.11.2014 04:06 8,7 C 95 % 1018,1 hPa 0,0 l/m 11,9 km/h (2 Bft) O-SO45 120 7,9 C 6,8 C
23.11.2014 03:09 8,8 C 95 % 1018,1 hPa 0,0 l/m 15,3 km/h (3 Bft) SO45 125 8,0 C 6,4 C
23.11.2014 02:12 8,4 C 94 % 1018,1 hPa 0,0 l/m 10,5 km/h (2 Bft) O-SO22.5 115 7,5 C 6,6 C
23.11.2014 01:15 8,7 C 93 % 1019,1 hPa 0,0 l/m 13,3 km/h (3 Bft) SO45 125 7,6 C 6,5 C
23.11.2014 00:18 8,8 C 93 % 1019,1 hPa 0,0 l/m 10,6 km/h (2 Bft) SO45 140 7,7 C 7,1 C
22.11.2014 23:21 8,7 C 93 % 1018,1 hPa 0,0 l/m 20,3 km/h (4 Bft) O-SO45 120 7,6 C 5,7 C
22.11.2014 22:24 8,7 C 94 % 1018,1 hPa 0,0 l/m 15,3 km/h (3 Bft) O-SO67.5 105 7,8 C 6,3 C
22.11.2014 21:27 8,5 C 94 % 1018,1 hPa 0,0 l/m 17,1 km/h (3 Bft) O-SO45 105 7,6 C 5,8 C
22.11.2014 20:30 8,2 C 94 % 1018,1 hPa 0,0 l/m 19,1 km/h (3 Bft) O-SO45 110 7,3 C 5,2 C
22.11.2014 19:33 8,2 C 93 % 1018,1 hPa 0,0 l/m 21,1 km/h (4 Bft) O-SO67.5 120 7,1 C 5,0 C
22.11.2014 18:36 8,4 C 92 % 1018,1 hPa 0,0 l/m 17,3 km/h (3 Bft) O-SO45 120 7,2 C 5,7 C
22.11.2014 17:39 8,6 C 91 % 1018,1 hPa 0,0 l/m 15,4 km/h (3 Bft) O-SO 115 7,2 C 6,1 C
22.11.2014 16:42 9,5 C 89 % 1018,0 hPa 0,0 l/m 13,5 km/h (3 Bft) SO45 125 7,8 C 7,5 C
22.11.2014 15:45 10,6 C 88 % 1016,9 hPa 0,0 l/m 19,5 km/h (3 Bft) SO45 125 8,7 C 10,6 C
22.11.2014 14:48 10,5 C 89 % 1017,9 hPa 0,0 l/m 16,8 km/h (3 Bft) O-SO45 105 8,8 C 10,5 C
22.11.2014 13:51 9,6 C 89 % 1018,0 hPa 0,0 l/m 14,4 km/h (3 Bft) O-SO45 120 7,9 C 7,5 C
22.11.2014 12:54 9,3 C 90 % 1018,0 hPa 0,0 l/m 13,9 km/h (3 Bft) SO45 125 7,7 C 7,2 C
22.11.2014 11:57 8,6 C 89 % 1018,1 hPa 0,0 l/m 16,2 km/h (3 Bft) O-SO45 115 6,9 C 6,0 C
22.11.2014 11:00 7,6 C 92 % 1018,2 hPa 0,0 l/m 17,5 km/h (3 Bft) SO45 125 6,4 C 4,6 C
22.11.2014 10:03 6,1 C 95 % 1018,3 hPa 0,0 l/m 16,1 km/h (3 Bft) SO45 125 5,4 C 2,9 C
22.11.2014 09:06 4,4 C 94 % 1018,5 hPa 0,0 l/m 15,8 km/h (3 Bft) O-SO22.5 105 3,5 C 0,9 C
22.11.2014 08:09 3,9 C 93 % 1018,5 hPa 0,0 l/m 14,0 km/h (3 Bft) O-SO45 110 2,9 C 0,6 C
22.11.2014 07:12 4,1 C 92 % 1018,5 hPa 0,0 l/m 17,1 km/h (3 Bft) O-SO22.5 110 2,9 C 0,3 C
22.11.2014 07:00 4,1 C 92 % 1018,5 hPa 0,0 l/m 16,3 km/h (3 Bft) O-SO45 115 2,9 C 0,4 C
_ Min-Zeit 07:39 13:24 15:36 - 01:48 - - 07:39 07:03
Minimum _ 3,9 C 87 % 1016,9 hPa - 6,7 km/h (2 Bft) - - 2,9 C -0,0 C
_ Max-Zeit 15:12 10:00 01:51 07:00 20:36 - - 15:12 15:12
Maximum _ 10,8 C 95 % 1019,2 hPa 0,0 l/m 25,1 km/h
SO (4 Bft)
- - 8,9 C 10,8 C
Durchschnitt _ 7,9 C 92 % 1018,2 hPa #0,0 l/m 16,1 km/h (3 Bft) O-SO - 6,7 C 5,4 C